Time;durP1;ratioP1;P1;durP2;ratioP2;P2;SDS_P1;SDS_P2;PMS_P1;PMS_P2;Temp;Humidity;BMP_temperature;BMP_pressure;BME280_temperature;BME280_humidity;BME280_pressure;Samples;Min_cycle;Max_cycle;Signal;HPM_P1;HPM_P2
2021/01/31 00:00:10;;;;;;;14.17;10.97;;;-0.30;92.60;;;;;;5042497;28;20867;-83
2021/01/31 00:02:36;;;;;;;14.60;11.30;;;-0.30;91.70;;;;;;5058063;28;21006;-81
2021/01/31 00:05:03;;;;;;;13.70;11.00;;;-0.40;91.50;;;;;;5047207;28;20483;-81
2021/01/31 00:07:31;;;;;;;14.67;11.90;;;-0.40;92.00;;;;;;5050358;28;21029;-81
2021/01/31 00:09:57;;;;;;;16.63;12.20;;;-0.40;92.20;;;;;;5051317;28;20565;-81
2021/01/31 00:12:24;;;;;;;15.77;11.60;;;-0.40;92.20;;;;;;5054585;28;20475;-82
2021/01/31 00:14:51;;;;;;;13.93;11.30;;;-0.40;92.20;;;;;;5051278;28;20450;-81
2021/01/31 00:17:18;;;;;;;15.97;11.30;;;-0.40;94.10;;;;;;5042064;28;20856;-82
2021/01/31 00:19:45;;;;;;;14.33;11.60;;;-0.50;93.40;;;;;;5048300;28;20893;-82
2021/01/31 00:22:11;;;;;;;14.30;10.37;;;-0.50;92.90;;;;;;5051946;28;20481;-82
2021/01/31 00:24:38;;;;;;;13.60;10.73;;;-0.60;91.90;;;;;;5051614;28;20448;-80
2021/01/31 00:27:04;;;;;;;16.20;10.80;;;-0.50;93.70;;;;;;5046491;28;20457;-81
2021/01/31 00:29:31;;;;;;;13.87;10.57;;;-0.40;94.10;;;;;;5045835;28;20449;-82
2021/01/31 00:31:58;;;;;;;14.20;10.67;;;-0.40;94.80;;;;;;5042595;28;20450;-81
2021/01/31 00:34:25;;;;;;;12.53;10.27;;;-0.40;92.60;;;;;;5046398;28;20532;-82
2021/01/31 00:36:52;;;;;;;17.40;11.80;;;-0.50;92.60;;;;;;5047263;28;20494;-81
2021/01/31 00:39:18;;;;;;;14.10;10.63;;;-0.50;92.60;;;;;;5048360;28;20458;-81
2021/01/31 00:41:45;;;;;;;14.60;10.53;;;-0.50;90.70;;;;;;5047635;28;20467;-82
2021/01/31 00:44:12;;;;;;;14.10;10.40;;;-0.60;90.30;;;;;;5048507;28;20481;-82
2021/01/31 00:46:42;;;;;;;15.63;11.80;;;-0.60;92.20;;;;;;5052973;28;20445;-81
2021/01/31 00:49:10;;;;;;;14.20;10.97;;;-0.60;92.30;;;;;;5050406;28;20453;-81
2021/01/31 00:51:37;;;;;;;14.60;10.90;;;-0.50;92.30;;;;;;5053315;28;20472;-82
2021/01/31 00:54:04;;;;;;;14.90;11.03;;;-0.60;91.90;;;;;;5050409;28;20466;-83
2021/01/31 00:56:30;;;;;;;16.73;11.90;;;-0.60;91.80;;;;;;5057043;28;20450;-82
2021/01/31 00:58:57;;;;;;;14.07;10.27;;;-0.70;91.90;;;;;;5056704;28;20457;-81
2021/01/31 01:01:23;;;;;;;16.23;11.73;;;-0.70;93.20;;;;;;5050339;28;20445;-81
2021/01/31 01:03:50;;;;;;;14.67;10.70;;;-0.60;94.20;;;;;;5047665;28;20531;-80
2021/01/31 01:06:17;;;;;;;14.13;11.17;;;-0.60;92.20;;;;;;5047102;28;20459;-82
2021/01/31 01:08:43;;;;;;;16.47;11.53;;;-0.60;93.50;;;;;;5061808;28;20476;-82
2021/01/31 01:11:10;;;;;;;14.40;10.63;;;-0.60;92.90;;;;;;5058043;28;20543;-81
2021/01/31 01:13:36;;;;;;;13.70;10.10;;;-0.70;91.40;;;;;;5054194;28;20554;-81
2021/01/31 01:16:03;;;;;;;12.43;10.00;;;-0.50;91.70;;;;;;5054324;28;20456;-83
2021/01/31 01:18:31;;;;;;;15.17;11.37;;;-0.60;90.90;;;;;;5056894;28;20466;-80
2021/01/31 01:20:57;;;;;;;13.97;11.23;;;-0.50;93.20;;;;;;5064478;28;20913;-81
2021/01/31 01:23:24;;;;;;;14.30;11.07;;;-0.60;91.00;;;;;;5058055;28;20449;-80
2021/01/31 01:25:51;;;;;;;15.13;10.23;;;-0.50;90.80;;;;;;5052128;28;20774;-79
2021/01/31 01:28:18;;;;;;;17.53;11.20;;;-0.50;91.30;;;;;;5048125;28;20957;-79
2021/01/31 01:30:44;;;;;;;17.03;10.70;;;-0.50;91.60;;;;;;5039631;28;20470;-79
2021/01/31 01:33:11;;;;;;;13.57;10.80;;;-0.40;93.30;;;;;;5053715;28;21010;-79
2021/01/31 01:35:37;;;;;;;13.13;10.10;;;-0.50;90.80;;;;;;5056626;28;20457;-79
2021/01/31 01:38:03;;;;;;;12.63;10.07;;;-0.50;91.30;;;;;;5044074;28;20455;-79
2021/01/31 01:40:34;;;;;;;16.57;10.73;;;-0.50;90.50;;;;;;5052413;28;20811;-79
2021/01/31 01:43:00;;;;;;;15.53;11.30;;;-0.60;90.80;;;;;;5043513;28;20485;-79
2021/01/31 01:45:27;;;;;;;18.47;12.20;;;-0.50;92.00;;;;;;5046718;28;20488;-79
2021/01/31 01:47:58;;;;;;;12.80;10.17;;;-0.40;91.20;;;;;;5047492;28;20482;-78
2021/01/31 01:50:29;;;;;;;14.97;12.10;;;-0.50;90.40;;;;;;5049090;28;20511;-79
2021/01/31 01:52:59;;;;;;;13.40;10.47;;;-0.50;90.00;;;;;;5047563;28;20476;-79
2021/01/31 01:55:29;;;;;;;14.97;10.87;;;-0.50;90.90;;;;;;5046027;28;20481;-78
2021/01/31 01:58:01;;;;;;;14.60;10.80;;;-0.50;89.20;;;;;;5051879;28;20489;-79
2021/01/31 02:00:27;;;;;;;15.90;11.30;;;-0.40;89.90;;;;;;5042767;28;20465;-79
2021/01/31 02:02:57;;;;;;;15.70;10.37;;;-0.50;88.00;;;;;;5045556;28;20443;-78
2021/01/31 02:05:25;;;;;;;13.77;10.33;;;-0.50;88.00;;;;;;5041066;28;20944;-79
2021/01/31 02:07:52;;;;;;;14.60;10.80;;;-0.40;90.00;;;;;;5046199;28;20502;-79
2021/01/31 02:10:23;;;;;;;14.93;11.03;;;-0.50;88.80;;;;;;5044783;28;21212;-79
2021/01/31 02:12:51;;;;;;;14.27;10.63;;;-0.40;90.40;;;;;;5043178;28;20485;-79
2021/01/31 02:15:21;;;;;;;12.87;10.37;;;-0.30;89.70;;;;;;5046559;28;20507;-80
2021/01/31 02:17:59;;;;;;;14.57;11.20;;;-0.50;86.50;;;;;;5048548;28;20897;-79
2021/01/31 02:21:04;;;;;;;15.37;11.50;;;-0.50;87.00;;;;;;5057510;28;20484;-80
2021/01/31 02:23:57;;;;;;;14.13;11.73;;;-0.40;86.20;;;;;;5053739;28;20468;-78
2021/01/31 02:26:45;;;;;;;14.70;11.50;;;-0.40;87.70;;;;;;5053229;28;20530;-80
2021/01/31 02:29:25;;;;;;;14.37;10.90;;;-0.40;86.70;;;;;;5052739;28;20458;-79
2021/01/31 02:32:18;;;;;;;14.87;10.93;;;-0.30;87.20;;;;;;5047132;28;20460;-79
2021/01/31 02:34:54;;;;;;;12.93;10.40;;;-0.40;85.30;;;;;;5046232;28;20445;-79
2021/01/31 02:37:28;;;;;;;15.90;11.30;;;-0.40;84.00;;;;;;5053203;28;20457;-79
2021/01/31 02:40:02;;;;;;;16.43;11.60;;;-0.40;84.00;;;;;;5053986;28;20459;-79
2021/01/31 02:42:37;;;;;;;14.20;11.27;;;-0.40;84.30;;;;;;5056874;28;20485;-79
2021/01/31 02:45:11;;;;;;;16.00;10.97;;;-0.40;84.10;;;;;;5061200;28;20487;-79
2021/01/31 02:47:42;;;;;;;18.80;11.73;;;-0.40;83.10;;;;;;5055707;28;20542;-79
2021/01/31 02:50:15;;;;;;;14.90;11.90;;;-0.30;86.90;;;;;;5045748;28;20566;-79
2021/01/31 02:52:48;;;;;;;13.53;11.47;;;-0.40;83.00;;;;;;5044231;28;20773;-79
2021/01/31 02:55:20;;;;;;;16.77;12.17;;;-0.30;85.30;;;;;;5043758;28;20450;-79
2021/01/31 02:57:53;;;;;;;15.37;10.90;;;-0.30;83.00;;;;;;5042907;28;20485;-79
2021/01/31 03:00:23;;;;;;;13.83;10.53;;;-0.30;84.60;;;;;;5041223;28;20449;-80
2021/01/31 03:02:56;;;;;;;16.50;10.87;;;-0.30;83.60;;;;;;5053880;28;20463;-79
2021/01/31 03:05:27;;;;;;;15.87;11.87;;;-0.30;83.20;;;;;;5060829;28;20458;-79
2021/01/31 03:07:57;;;;;;;17.13;11.77;;;-0.40;83.40;;;;;;5037542;28;20836;-79
2021/01/31 03:10:31;;;;;;;14.97;10.60;;;-0.30;84.30;;;;;;5041148;28;20461;-79
2021/01/31 03:13:00;;;;;;;14.07;10.60;;;-0.30;82.50;;;;;;5043704;28;20454;-79
2021/01/31 03:15:30;;;;;;;16.77;11.70;;;-0.30;81.90;;;;;;5047095;28;20486;-79
2021/01/31 03:18:01;;;;;;;13.33;11.93;;;-0.30;82.50;;;;;;5048536;28;20876;-80
2021/01/31 03:20:30;;;;;;;15.33;11.43;;;-0.30;82.20;;;;;;5047341;28;20448;-79
2021/01/31 03:23:03;;;;;;;14.03;10.43;;;-0.30;80.90;;;;;;5048405;28;20481;-79
2021/01/31 03:25:34;;;;;;;13.30;10.77;;;-0.20;81.40;;;;;;5045599;28;20475;-79
2021/01/31 03:28:01;;;;;;;17.00;11.80;;;-0.40;81.10;;;;;;5049121;28;20460;-79
2021/01/31 03:30:27;;;;;;;15.77;11.10;;;-0.30;82.90;;;;;;5041858;28;20471;-79
2021/01/31 03:33:00;;;;;;;16.50;12.30;;;-0.30;82.20;;;;;;5053943;28;20454;-79
2021/01/31 03:35:31;;;;;;;15.40;11.17;;;-0.30;81.50;;;;;;5041514;28;20457;-79
2021/01/31 03:38:07;;;;;;;16.17;12.20;;;-0.30;81.80;;;;;;5049031;28;20539;-78
2021/01/31 03:40:35;;;;;;;14.20;11.03;;;-0.40;81.20;;;;;;5045983;28;20497;-80
2021/01/31 03:43:02;;;;;;;15.23;12.00;;;-0.30;80.90;;;;;;5065441;28;20439;-80
2021/01/31 03:45:32;;;;;;;15.67;11.53;;;-0.30;81.10;;;;;;5063034;28;20526;-80
2021/01/31 03:48:05;;;;;;;14.70;11.60;;;-0.40;80.10;;;;;;5060131;28;20862;-79
2021/01/31 03:50:33;;;;;;;15.20;12.20;;;-0.30;80.80;;;;;;5041362;28;21325;-80
2021/01/31 03:53:00;;;;;;;13.93;10.67;;;-0.30;80.70;;;;;;5051247;28;20474;-79
2021/01/31 03:55:27;;;;;;;17.33;12.90;;;-0.30;81.40;;;;;;5049041;28;20455;-79
2021/01/31 03:57:57;;;;;;;17.60;12.20;;;-0.20;81.60;;;;;;5045302;28;20450;-80
2021/01/31 04:00:26;;;;;;;14.47;10.90;;;-0.20;81.50;;;;;;5050185;28;20454;-79
2021/01/31 04:02:56;;;;;;;15.77;11.60;;;-0.20;81.00;;;;;;5046082;28;20455;-79
2021/01/31 04:05:26;;;;;;;13.43;11.83;;;-0.20;81.00;;;;;;5048122;28;20524;-79
2021/01/31 04:07:54;;;;;;;14.97;11.07;;;-0.20;81.00;;;;;;5047648;28;20527;-80
2021/01/31 04:10:22;;;;;;;16.60;11.33;;;-0.30;80.50;;;;;;5046762;28;20496;-79
2021/01/31 04:12:53;;;;;;;18.50;12.03;;;-0.20;81.00;;;;;;5043305;28;20562;-79
2021/01/31 04:15:42;;;;;;;14.83;10.80;;;-0.20;81.00;;;;;;5038198;28;20552;-78
2021/01/31 04:18:09;;;;;;;14.60;11.50;;;-0.30;80.50;;;;;;5042010;28;20553;-79
2021/01/31 04:20:36;;;;;;;15.43;11.33;;;-0.30;81.10;;;;;;5044817;28;20451;-79
2021/01/31 04:23:04;;;;;;;14.70;11.97;;;-0.30;81.00;;;;;;5048110;28;20538;-79
2021/01/31 04:25:31;;;;;;;17.47;12.43;;;-0.40;80.50;;;;;;5046091;28;20527;-79
2021/01/31 04:27:57;;;;;;;16.73;12.23;;;-0.30;80.40;;;;;;5045164;28;20463;-79
2021/01/31 04:30:24;;;;;;;16.00;12.53;;;-0.30;80.60;;;;;;5046882;28;20454;-79
2021/01/31 04:32:51;;;;;;;14.27;11.50;;;-0.30;80.20;;;;;;5035422;28;20453;-79
2021/01/31 04:35:19;;;;;;;16.50;12.17;;;-0.30;80.40;;;;;;5035515;28;20542;-79
2021/01/31 04:37:46;;;;;;;16.07;12.63;;;-0.30;80.20;;;;;;5039476;28;20544;-79
2021/01/31 04:40:15;;;;;;;16.63;12.27;;;-0.40;79.80;;;;;;5042651;28;20464;-80
2021/01/31 04:42:42;;;;;;;16.10;11.80;;;-0.30;79.70;;;;;;5045340;28;20449;-80
2021/01/31 04:45:10;;;;;;;17.87;12.43;;;-0.40;79.50;;;;;;5049200;28;20438;-80
2021/01/31 04:47:42;;;;;;;13.63;11.20;;;-0.40;79.00;;;;;;5047220;28;20586;-78
2021/01/31 04:50:16;;;;;;;17.00;12.57;;;-0.40;78.90;;;;;;5046379;28;21016;-78
2021/01/31 04:53:09;;;;;;;16.13;11.63;;;-0.30;80.00;;;;;;5048552;28;20512;-78
2021/01/31 04:56:11;;;;;;;15.70;12.10;;;-0.40;78.60;;;;;;5044958;28;20454;-79
2021/01/31 04:58:43;;;;;;;15.63;11.93;;;-0.40;79.20;;;;;;5038111;28;20548;-79
2021/01/31 05:01:17;;;;;;;16.00;12.20;;;-0.40;79.10;;;;;;5040189;28;20533;-79
2021/01/31 05:03:51;;;;;;;17.23;12.20;;;-0.40;78.50;;;;;;5049361;28;20524;-80
2021/01/31 05:06:18;;;;;;;18.23;11.87;;;-0.40;78.70;;;;;;5051513;28;20982;-80
2021/01/31 05:08:48;;;;;;;16.47;11.90;;;-0.40;78.30;;;;;;5046365;28;20456;-79
2021/01/31 05:11:28;;;;;;;13.83;11.20;;;-0.40;78.20;;;;;;5045980;28;20969;-78
2021/01/31 05:14:05;;;;;;;15.07;11.30;;;-0.30;79.20;;;;;;5048557;28;20528;-79
2021/01/31 05:16:32;;;;;;;15.37;9.87;;;-0.40;77.80;;;;;;5049307;28;20449;-79
2021/01/31 05:19:01;;;;;;;20.10;12.80;;;-0.40;77.90;;;;;;5052215;28;20529;-79
2021/01/31 05:21:31;;;;;;;17.00;11.93;;;-0.30;78.90;;;;;;5044588;28;20551;-79
2021/01/31 05:24:00;;;;;;;17.60;12.23;;;-0.40;78.00;;;;;;5040613;28;20551;-79
2021/01/31 05:26:28;;;;;;;15.40;11.17;;;-0.40;77.70;;;;;;5049641;28;20553;-80
2021/01/31 05:29:00;;;;;;;16.10;11.00;;;-0.40;78.20;;;;;;5044672;28;20564;-79
2021/01/31 05:31:30;;;;;;;16.03;11.30;;;-0.40;78.20;;;;;;5047330;28;20490;-79
2021/01/31 05:34:00;;;;;;;15.77;10.83;;;-0.50;77.20;;;;;;5038792;28;20514;-79
2021/01/31 05:36:29;;;;;;;17.23;12.40;;;-0.50;77.90;;;;;;5045582;28;20463;-79
2021/01/31 05:38:56;;;;;;;18.67;12.00;;;-0.40;78.10;;;;;;5045911;28;20999;-80
2021/01/31 05:41:40;;;;;;;17.90;12.33;;;-0.50;78.10;;;;;;5046963;28;20504;-80
2021/01/31 05:44:20;;;;;;;17.53;12.60;;;-0.50;77.80;;;;;;5043484;28;20517;-79
2021/01/31 05:46:48;;;;;;;15.40;12.00;;;-0.40;78.20;;;;;;5038629;28;20463;-79
2021/01/31 05:49:34;;;;;;;17.23;12.10;;;-0.40;78.10;;;;;;5045340;28;20533;-80
2021/01/31 05:52:01;;;;;;;17.70;12.70;;;-0.40;78.30;;;;;;5045025;28;20466;-79
2021/01/31 05:54:32;;;;;;;16.07;12.60;;;-0.30;78.30;;;;;;5039867;28;20541;-80
2021/01/31 05:56:58;;;;;;;15.27;11.60;;;-0.40;78.40;;;;;;5039885;28;20482;-79
2021/01/31 05:59:38;;;;;;;23.57;12.13;;;-0.40;78.20;;;;;;5045315;28;20501;-79
2021/01/31 06:02:04;;;;;;;16.83;12.90;;;-0.30;78.60;;;;;;5047419;28;20441;-79
2021/01/31 06:04:31;;;;;;;17.77;12.67;;;-0.30;78.50;;;;;;5047825;28;20497;-80
2021/01/31 06:07:07;;;;;;;17.93;12.57;;;-0.40;78.00;;;;;;5049824;28;20457;-79
2021/01/31 06:09:38;;;;;;;19.47;13.40;;;-0.40;77.60;;;;;;5054472;28;20526;-80
2021/01/31 06:12:10;;;;;;;18.77;13.57;;;-0.40;77.90;;;;;;5054506;28;20561;-79
2021/01/31 06:14:39;;;;;;;16.70;11.77;;;-0.40;78.80;;;;;;5043422;28;21167;-79
2021/01/31 06:17:09;;;;;;;16.70;12.97;;;-0.40;78.10;;;;;;5039664;28;21083;-79
2021/01/31 06:19:38;;;;;;;20.83;14.67;;;-0.40;78.20;;;;;;5044974;28;20973;-80
2021/01/31 06:22:06;;;;;;;17.30;12.30;;;-0.40;78.30;;;;;;5042605;28;20625;-80
2021/01/31 06:24:43;;;;;;;17.10;12.50;;;-0.30;78.40;;;;;;5039945;28;20445;-78
2021/01/31 06:27:13;;;;;;;17.40;13.70;;;-0.40;78.30;;;;;;5045126;28;20481;-80
2021/01/31 06:29:48;;;;;;;17.37;13.30;;;-0.40;78.00;;;;;;5047520;28;20457;-79
2021/01/31 06:32:18;;;;;;;16.17;11.60;;;-0.40;78.80;;;;;;5039404;28;20461;-79
2021/01/31 06:34:48;;;;;;;18.90;14.07;;;-0.30;79.40;;;;;;5045694;28;20450;-79
2021/01/31 06:37:35;;;;;;;18.07;13.80;;;-0.40;79.20;;;;;;5044259;28;20452;-79
2021/01/31 06:40:16;;;;;;;19.40;14.20;;;-0.40;78.90;;;;;;5055003;28;20457;-79
2021/01/31 06:42:52;;;;;;;19.27;13.50;;;-0.50;78.10;;;;;;5063111;28;20450;-79
2021/01/31 06:45:29;;;;;;;21.57;13.40;;;-0.40;79.10;;;;;;5047881;28;20458;-79
2021/01/31 06:48:27;;;;;;;18.57;13.20;;;-0.40;78.50;;;;;;5045183;28;20454;-79
2021/01/31 06:51:29;;;;;;;18.30;12.87;;;-0.40;78.70;;;;;;5044151;28;20469;-79
2021/01/31 06:54:29;;;;;;;19.10;13.13;;;-0.40;78.40;;;;;;5022248;28;20458;-79
2021/01/31 06:57:13;;;;;;;21.07;13.47;;;-0.50;78.00;;;;;;4995104;28;20534;-79
2021/01/31 07:00:02;;;;;;;21.40;12.90;;;-0.40;78.40;;;;;;5045150;28;20455;-79
2021/01/31 07:03:07;;;;;;;18.40;12.00;;;-0.40;78.00;;;;;;5039495;28;20456;-79
2021/01/31 07:05:58;;;;;;;22.70;14.30;;;-0.40;77.80;;;;;;5050146;28;20557;-79
2021/01/31 07:08:55;;;;;;;20.10;12.50;;;-0.40;77.70;;;;;;5061708;28;20469;-79
2021/01/31 07:11:32;;;;;;;18.47;12.53;;;-0.30;77.90;;;;;;5048605;28;20602;-80
2021/01/31 07:14:49;;;;;;;21.43;13.60;;;-0.20;78.80;;;;;;5046366;28;20536;-79
2021/01/31 07:17:32;;;;;;;18.43;13.00;;;-0.40;76.90;;;;;;4993739;28;20513;-81
2021/01/31 07:20:06;;;;;;;19.30;12.17;;;-0.50;76.60;;;;;;5055569;28;20474;-79
2021/01/31 07:22:40;;;;;;;18.17;12.73;;;-0.50;77.00;;;;;;5054495;28;20546;-79
2021/01/31 07:25:16;;;;;;;20.23;13.60;;;-0.40;77.50;;;;;;5048884;28;20488;-79
2021/01/31 07:27:49;;;;;;;17.97;12.43;;;-0.50;76.70;;;;;;5044993;28;20493;-79
2021/01/31 07:30:21;;;;;;;17.60;11.97;;;-0.50;77.00;;;;;;5046496;28;20466;-79
2021/01/31 07:33:10;;;;;;;19.50;13.30;;;-0.40;77.30;;;;;;5045240;28;20463;-80
2021/01/31 07:35:45;;;;;;;20.37;13.60;;;-0.30;77.40;;;;;;5056742;28;20459;-79
2021/01/31 07:38:19;;;;;;;16.73;12.43;;;-0.30;76.80;;;;;;5049952;28;20530;-80
2021/01/31 07:40:47;;;;;;;19.50;13.03;;;-0.30;76.80;;;;;;5050984;28;20445;-79
2021/01/31 07:43:17;;;;;;;18.00;12.70;;;-0.30;76.40;;;;;;5055391;28;20823;-80
2021/01/31 07:45:44;;;;;;;18.23;12.73;;;-0.20;76.80;;;;;;5038160;28;20465;-79
2021/01/31 07:48:39;;;;;;;18.07;12.60;;;-0.10;76.20;;;;;;5054021;28;20526;-79
2021/01/31 07:51:06;;;;;;;18.93;12.30;;;-0.30;75.80;;;;;;5044347;28;20551;-78
2021/01/31 07:53:36;;;;;;;19.13;12.63;;;-0.20;75.90;;;;;;5040439;28;20453;-80
2021/01/31 07:56:29;;;;;;;18.10;11.23;;;0.00;76.40;;;;;;5042893;28;20491;-80
2021/01/31 07:58:58;;;;;;;17.73;12.10;;;-0.10;75.60;;;;;;5032453;28;20455;-79
2021/01/31 08:01:47;;;;;;;18.17;12.30;;;-0.20;75.70;;;;;;5043655;28;20456;-79
2021/01/31 08:04:24;;;;;;;18.37;12.80;;;-0.20;75.70;;;;;;5044780;28;20458;-80
2021/01/31 08:06:51;;;;;;;18.40;12.97;;;0.10;75.80;;;;;;5046294;28;20462;-80
2021/01/31 08:09:51;;;;;;;16.97;12.60;;;-0.10;75.20;;;;;;5043345;28;20597;-80
2021/01/31 08:12:18;;;;;;;18.93;12.33;;;0.30;76.10;;;;;;5043838;28;20467;-79
2021/01/31 08:15:11;;;;;;;18.90;12.77;;;0.30;75.40;;;;;;5044658;28;20455;-79
2021/01/31 08:18:00;;;;;;;19.30;13.03;;;0.20;74.90;;;;;;5044004;28;20539;-80
2021/01/31 08:20:41;;;;;;;16.63;12.67;;;0.10;74.10;;;;;;5047031;28;20968;-79
2021/01/31 08:23:53;;;;;;;18.60;12.07;;;0.20;74.30;;;;;;5043871;28;20445;-79
2021/01/31 08:26:46;;;;;;;19.23;12.63;;;0.00;73.90;;;;;;5041880;28;20512;-79
2021/01/31 08:29:27;;;;;;;16.73;11.87;;;0.00;74.10;;;;;;5055285;28;20518;-80
2021/01/31 08:32:14;;;;;;;17.83;12.07;;;0.30;74.60;;;;;;5058105;28;20487;-79
2021/01/31 08:35:25;;;;;;;19.30;13.40;;;0.40;74.20;;;;;;5050314;28;20531;-79
2021/01/31 08:38:11;;;;;;;18.13;12.17;;;0.40;73.40;;;;;;5051176;28;20459;-80
2021/01/31 08:40:37;;;;;;;17.03;12.83;;;0.40;73.50;;;;;;5047220;28;20619;-81
2021/01/31 08:43:07;;;;;;;16.13;10.80;;;0.40;72.70;;;;;;5052945;28;20491;-84
2021/01/31 08:45:46;;;;;;;16.47;11.37;;;0.30;72.60;;;;;;5054764;28;20454;-82
2021/01/31 08:48:24;;;;;;;14.63;12.00;;;0.40;73.00;;;;;;5047041;28;20451;-84
2021/01/31 08:51:03;;;;;;;17.30;11.70;;;0.30;73.00;;;;;;5050013;28;20456;-83
2021/01/31 08:53:29;;;;;;;17.53;12.50;;;0.50;73.00;;;;;;5045463;28;20489;-74
2021/01/31 08:56:14;;;;;;;19.73;12.57;;;0.10;72.40;;;;;;5048479;28;20452;-78
2021/01/31 08:58:42;;;;;;;18.10;10.87;;;0.20;72.50;;;;;;5045579;28;20450;-75
2021/01/31 09:01:08;;;;;;;18.90;11.60;;;0.20;72.10;;;;;;5042558;28;20542;-77
2021/01/31 09:03:35;;;;;;;16.20;11.10;;;0.50;72.60;;;;;;5047717;28;20449;-77
2021/01/31 09:06:02;;;;;;;19.97;12.63;;;0.30;72.20;;;;;;5041623;28;20455;-76
2021/01/31 09:08:28;;;;;;;17.33;12.50;;;0.50;72.40;;;;;;5043520;28;20473;-78
2021/01/31 09:10:55;;;;;;;21.47;14.13;;;0.70;72.50;;;;;;5051290;28;20469;-78
2021/01/31 09:13:27;;;;;;;20.13;13.07;;;0.60;72.10;;;;;;5049508;28;20546;-76
2021/01/31 09:16:10;;;;;;;16.43;12.17;;;0.60;71.90;;;;;;5043557;28;20448;-78
2021/01/31 09:18:37;;;;;;;18.20;13.20;;;0.60;72.00;;;;;;5039520;28;20562;-74
2021/01/31 09:21:20;;;;;;;21.00;13.13;;;1.10;72.20;;;;;;5040938;28;20455;-75
2021/01/31 09:23:47;;;;;;;17.03;12.47;;;1.50;72.50;;;;;;5040845;28;20469;-74
2021/01/31 09:26:14;;;;;;;17.47;12.90;;;1.40;71.00;;;;;;5040790;28;20971;-75
2021/01/31 09:28:41;;;;;;;18.30;12.83;;;1.50;71.10;;;;;;5038026;28;20468;-76
2021/01/31 09:31:10;;;;;;;19.50;12.90;;;0.90;70.90;;;;;;5041810;28;20514;-75
2021/01/31 09:33:40;;;;;;;15.70;11.00;;;1.00;70.90;;;;;;5038679;28;20457;-75
2021/01/31 09:36:19;;;;;;;19.03;13.63;;;0.70;71.00;;;;;;5039798;28;20451;-75
2021/01/31 09:38:46;;;;;;;17.37;12.67;;;0.70;71.40;;;;;;5036505;28;20460;-74
2021/01/31 09:41:14;;;;;;;18.40;12.33;;;1.10;71.50;;;;;;5037423;28;20895;-75
2021/01/31 09:43:43;;;;;;;19.23;12.03;;;0.90;71.20;;;;;;5039402;28;20545;-75
2021/01/31 09:46:15;;;;;;;18.80;13.13;;;1.10;71.00;;;;;;5040641;28;20843;-77
2021/01/31 09:48:42;;;;;;;19.63;14.03;;;1.00;71.30;;;;;;5038850;28;21215;-75
2021/01/31 09:51:23;;;;;;;18.50;12.50;;;1.00;71.10;;;;;;5040677;28;20506;-75
2021/01/31 09:53:49;;;;;;;16.13;12.80;;;0.90;71.30;;;;;;5033875;28;20464;-76
2021/01/31 09:56:36;;;;;;;19.93;14.53;;;1.30;72.10;;;;;;5038914;28;20535;-74
2021/01/31 09:59:02;;;;;;;17.60;12.40;;;1.50;71.00;;;;;;5035365;28;20460;-75
2021/01/31 10:01:31;;;;;;;23.90;13.53;;;1.70;71.30;;;;;;5044003;28;20474;-74
2021/01/31 10:03:59;;;;;;;18.20;13.10;;;1.40;70.80;;;;;;5036828;28;20479;-74
2021/01/31 10:06:28;;;;;;;19.53;13.70;;;1.50;71.30;;;;;;5036354;28;20904;-76
2021/01/31 10:08:58;;;;;;;18.93;13.33;;;1.80;71.10;;;;;;5037933;28;20441;-75
2021/01/31 10:11:30;;;;;;;22.97;14.37;;;2.10;70.70;;;;;;5041651;28;20474;-74
2021/01/31 10:13:56;;;;;;;17.77;13.30;;;2.50;70.20;;;;;;5043105;28;20448;-77
2021/01/31 10:16:25;;;;;;;20.70;13.90;;;1.60;69.80;;;;;;5042044;28;20503;-75
2021/01/31 10:18:52;;;;;;;17.93;13.00;;;1.60;70.30;;;;;;5041091;28;20551;-75
2021/01/31 10:21:25;;;;;;;18.70;13.77;;;1.90;70.30;;;;;;5040147;28;20466;-77
2021/01/31 10:24:01;;;;;;;19.20;13.50;;;1.90;70.40;;;;;;5040182;28;20462;-76
2021/01/31 10:26:29;;;;;;;17.93;13.07;;;2.40;70.80;;;;;;5040248;28;20463;-75
2021/01/31 10:28:58;;;;;;;21.90;13.93;;;2.30;70.20;;;;;;5042781;28;20439;-75
2021/01/31 10:31:27;;;;;;;21.07;14.40;;;2.20;69.40;;;;;;5044299;28;20464;-74
2021/01/31 10:33:55;;;;;;;18.23;13.63;;;2.50;70.30;;;;;;5043541;28;20571;-74
2021/01/31 10:36:32;;;;;;;17.00;14.20;;;2.20;69.30;;;;;;5038836;28;20547;-75
2021/01/31 10:39:01;;;;;;;16.47;12.50;;;2.60;69.70;;;;;;5051313;28;20533;-75
2021/01/31 10:41:27;;;;;;;14.70;11.80;;;2.60;69.40;;;;;;5038503;28;20540;-76
2021/01/31 10:44:01;;;;;;;15.37;11.83;;;2.80;69.40;;;;;;5044036;28;20457;-75
2021/01/31 10:46:29;;;;;;;13.03;10.60;;;2.70;69.20;;;;;;5040612;28;20729;-74
2021/01/31 10:48:56;;;;;;;15.63;11.57;;;3.00;68.80;;;;;;5041367;28;20449;-75
2021/01/31 10:51:25;;;;;;;14.70;11.47;;;3.10;68.60;;;;;;5033779;28;20479;-75
2021/01/31 10:53:51;;;;;;;16.07;10.70;;;3.00;68.40;;;;;;5042889;28;20453;-76
2021/01/31 10:56:17;;;;;;;16.83;10.83;;;2.90;67.80;;;;;;5037049;28;20455;-75
2021/01/31 10:58:44;;;;;;;15.20;11.40;;;2.70;68.10;;;;;;5049602;28;20444;-76
2021/01/31 11:01:10;;;;;;;16.83;11.73;;;2.90;68.60;;;;;;5042563;28;23245;-76
2021/01/31 11:03:37;;;;;;;15.70;12.27;;;2.90;68.50;;;;;;5050513;28;20464;-76
2021/01/31 11:06:04;;;;;;;14.30;11.77;;;3.00;68.00;;;;;;5045137;28;20459;-76
2021/01/31 11:08:31;;;;;;;14.67;11.10;;;3.20;67.60;;;;;;5049749;28;20456;-77
2021/01/31 11:10:57;;;;;;;14.93;11.63;;;3.00;67.10;;;;;;5054085;28;20473;-76
2021/01/31 11:13:24;;;;;;;17.57;11.70;;;3.00;66.90;;;;;;5040507;28;20465;-75
2021/01/31 11:15:50;;;;;;;16.70;11.73;;;3.10;67.60;;;;;;5044925;28;20516;-76
2021/01/31 11:18:17;;;;;;;13.07;10.80;;;3.20;68.00;;;;;;5036740;28;20561;-75
2021/01/31 11:20:43;;;;;;;13.90;11.17;;;3.20;67.00;;;;;;5039776;28;20464;-76
2021/01/31 11:23:10;;;;;;;16.50;11.70;;;2.80;67.10;;;;;;5036811;28;20499;-77
2021/01/31 11:25:37;;;;;;;13.37;10.67;;;2.90;66.90;;;;;;5044409;28;20944;-79
2021/01/31 11:28:04;;;;;;;14.87;11.07;;;2.80;66.40;;;;;;5040265;28;21045;-79
2021/01/31 11:30:34;;;;;;;14.77;11.03;;;2.90;66.10;;;;;;5042531;28;20532;-81
2021/01/31 11:33:01;;;;;;;13.23;11.10;;;3.10;66.50;;;;;;5044375;28;20472;-76
2021/01/31 11:35:29;;;;;;;15.97;11.27;;;3.30;67.10;;;;;;5046047;28;20476;-78
2021/01/31 11:37:55;;;;;;;13.93;11.00;;;3.20;66.10;;;;;;5042070;28;21039;-78
2021/01/31 11:40:23;;;;;;;14.97;10.20;;;3.10;66.20;;;;;;5041147;28;20463;-77
2021/01/31 11:42:50;;;;;;;15.30;11.63;;;2.90;66.00;;;;;;5036674;28;20544;-79
2021/01/31 11:45:18;;;;;;;13.27;10.10;;;3.10;66.40;;;;;;5042950;28;20456;-78
2021/01/31 11:47:45;;;;;;;16.13;12.63;;;3.00;65.70;;;;;;5041758;28;20451;-79
2021/01/31 11:50:13;;;;;;;19.03;11.50;;;3.10;66.30;;;;;;5041873;28;20955;-78
2021/01/31 11:52:40;;;;;;;15.47;10.63;;;2.90;66.30;;;;;;5041014;28;20490;-78
2021/01/31 11:55:08;;;;;;;16.33;10.77;;;2.70;65.90;;;;;;5039048;28;20452;-78
2021/01/31 11:57:37;;;;;;;15.53;11.57;;;3.10;66.10;;;;;;5040245;28;21299;-78
2021/01/31 12:00:04;;;;;;;13.90;10.03;;;3.40;66.00;;;;;;5039640;28;20464;-81
2021/01/31 12:02:31;;;;;;;12.87;9.90;;;3.10;64.60;;;;;;5042445;28;20448;-79
2021/01/31 12:04:57;;;;;;;13.37;9.73;;;2.90;65.40;;;;;;5038593;28;20456;-77
2021/01/31 12:07:24;;;;;;;13.10;9.30;;;3.00;65.30;;;;;;5041912;28;20838;-77
2021/01/31 12:10:00;;;;;;;15.73;10.60;;;3.10;65.40;;;;;;5039890;28;20958;-79
2021/01/31 12:12:27;;;;;;;12.40;8.63;;;3.00;65.30;;;;;;5040085;28;20820;-77
2021/01/31 12:14:54;;;;;;;16.37;10.50;;;2.70;65.00;;;;;;5040097;28;20857;-79
2021/01/31 12:17:22;;;;;;;14.37;10.57;;;2.70;65.10;;;;;;5040162;28;20470;-78
2021/01/31 12:19:48;;;;;;;13.37;10.10;;;2.80;65.20;;;;;;5035776;28;20457;-78
2021/01/31 12:22:15;;;;;;;14.43;10.03;;;2.60;65.00;;;;;;5044239;28;20470;-78
2021/01/31 12:24:43;;;;;;;15.13;10.23;;;2.70;65.10;;;;;;5040253;28;20968;-78
2021/01/31 12:27:09;;;;;;;15.20;11.03;;;2.50;65.10;;;;;;5039258;28;21340;-78
2021/01/31 12:29:36;;;;;;;13.10;9.17;;;2.50;65.20;;;;;;5038023;28;20458;-79
2021/01/31 12:32:04;;;;;;;16.67;11.30;;;2.50;65.50;;;;;;5047258;28;20476;-81
2021/01/31 12:34:30;;;;;;;13.80;10.47;;;2.70;65.90;;;;;;5048638;28;20439;-84
2021/01/31 12:36:57;;;;;;;13.90;10.13;;;2.60;65.10;;;;;;5050214;28;20459;-82
2021/01/31 12:39:23;;;;;;;14.60;10.60;;;2.60;65.30;;;;;;5054947;28;20544;-84
2021/01/31 12:41:50;;;;;;;14.43;10.87;;;2.70;65.40;;;;;;5051803;28;20456;-85
2021/01/31 12:44:16;;;;;;;12.47;10.10;;;2.70;66.10;;;;;;5062567;28;20437;-86
2021/01/31 12:46:43;;;;;;;14.97;10.30;;;2.90;66.00;;;;;;5061445;28;20466;-85
2021/01/31 12:49:10;;;;;;;15.43;10.87;;;2.90;65.60;;;;;;5062472;28;20470;-85
2021/01/31 12:51:37;;;;;;;13.97;10.40;;;2.80;65.50;;;;;;5061694;28;20475;-83
2021/01/31 12:54:04;;;;;;;13.77;10.67;;;2.70;65.70;;;;;;5060018;28;20456;-84